createdAt,value
2023-02-03T00:01:43.175Z,1.99
2023-02-03T00:04:11.657Z,1.91
2023-02-03T00:06:40.020Z,1.77
2023-02-03T00:09:09.062Z,1.88
2023-02-03T00:11:39.695Z,1.75
2023-02-03T00:14:09.955Z,1.83
2023-02-03T00:16:38.622Z,1.78
2023-02-03T00:19:08.211Z,1.91
2023-02-03T00:21:37.238Z,2.05
2023-02-03T00:24:08.714Z,1.99
2023-02-03T00:26:42.584Z,1.99
2023-02-03T00:29:11.304Z,1.86
2023-02-03T00:31:39.589Z,1.86
2023-02-03T00:34:08.120Z,1.86
2023-02-03T00:36:38.669Z,1.92
2023-02-03T00:39:09.529Z,1.72
2023-02-03T00:41:39.712Z,1.78
2023-02-03T00:44:08.712Z,1.65
2023-02-03T00:46:37.117Z,1.61
2023-02-03T00:49:10.490Z,1.67
2023-02-03T00:51:38.779Z,1.61
2023-02-03T00:54:07.126Z,1.48
2023-02-03T00:56:36.602Z,1.68
2023-02-03T00:59:06.932Z,1.55
2023-02-03T01:01:35.685Z,1.50
2023-02-03T01:04:05.564Z,1.74
2023-02-03T01:06:34.270Z,1.67
2023-02-03T01:09:03.030Z,1.54
2023-02-03T01:11:33.012Z,1.71
2023-02-03T01:14:03.617Z,1.75
2023-02-03T01:16:36.488Z,1.67
2023-02-03T01:19:05.567Z,1.68
2023-02-03T01:21:38.502Z,1.82
2023-02-03T01:24:09.109Z,1.55
2023-02-03T01:26:39.801Z,1.46
2023-02-03T01:29:08.508Z,1.36
2023-02-03T01:31:42.772Z,1.43
2023-02-03T01:34:13.948Z,1.43
2023-02-03T01:36:43.710Z,1.41
2023-02-03T01:39:13.286Z,1.44
2023-02-03T01:41:42.747Z,1.50
2023-02-03T01:44:44.929Z,1.61
2023-02-03T01:47:26.770Z,1.55
2023-02-03T01:50:01.045Z,1.40
2023-02-03T01:52:31.933Z,1.64
2023-02-03T01:55:04.110Z,1.43
2023-02-03T01:57:36.398Z,1.43
2023-02-03T02:00:09.950Z,1.37
2023-02-03T02:02:40.307Z,1.36
2023-02-03T02:05:13.641Z,1.52
2023-02-03T02:07:44.727Z,1.41
2023-02-03T02:10:13.764Z,1.47
2023-02-03T02:12:42.840Z,1.41
2023-02-03T02:15:11.953Z,1.48
2023-02-03T02:18:03.257Z,1.57
2023-02-03T02:20:41.413Z,1.51
2023-02-03T02:23:38.116Z,1.65
2023-02-03T02:26:45.251Z,1.60
2023-02-03T02:29:57.077Z,1.60
2023-02-03T02:32:41.474Z,1.47
2023-02-03T02:35:21.323Z,1.58
2023-02-03T02:37:55.317Z,1.65
2023-02-03T02:40:30.014Z,1.62
2023-02-03T02:43:09.454Z,1.58
2023-02-03T02:45:48.973Z,1.48
2023-02-03T02:48:25.030Z,1.46
2023-02-03T02:50:57.033Z,1.46
2023-02-03T02:53:28.348Z,1.50
2023-02-03T02:55:59.209Z,1.44
2023-02-03T02:58:30.244Z,1.44
2023-02-03T03:01:00.123Z,1.34
2023-02-03T03:03:31.997Z,1.31
2023-02-03T03:06:03.681Z,1.27
2023-02-03T03:08:40.859Z,1.30
2023-02-03T03:11:10.035Z,1.22
2023-02-03T03:13:45.646Z,1.36
2023-02-03T03:16:19.932Z,1.33
2023-02-03T03:18:53.126Z,1.27
2023-02-03T03:21:27.065Z,1.29
2023-02-03T03:23:58.790Z,1.19
2023-02-03T03:26:34.270Z,1.17
2023-02-03T03:29:12.225Z,1.23
2023-02-03T03:31:43.360Z,1.24
2023-02-03T03:34:15.817Z,1.17
2023-02-03T03:36:49.978Z,1.12
2023-02-03T03:39:27.671Z,1.02
2023-02-03T03:42:06.498Z,1.02
2023-02-03T03:44:39.220Z,0.99
2023-02-03T03:47:13.552Z,1.02
2023-02-03T03:49:46.227Z,0.95
2023-02-03T03:52:21.449Z,0.95
2023-02-03T03:54:52.842Z,0.83
2023-02-03T03:57:27.318Z,0.88
2023-02-03T03:59:56.432Z,0.85
2023-02-03T04:02:25.607Z,0.86
2023-02-03T04:05:00.327Z,0.76
2023-02-03T04:07:40.784Z,0.65
2023-02-03T04:10:17.585Z,0.72
2023-02-03T04:12:53.958Z,0.57
2023-02-03T04:15:23.135Z,0.60
2023-02-03T04:17:52.358Z,0.58
2023-02-03T04:20:22.699Z,0.36
2023-02-03T04:22:51.564Z,0.40
2023-02-03T04:25:23.871Z,0.30
2023-02-03T04:27:53.680Z,0.34
2023-02-03T04:30:22.017Z,0.34
2023-02-03T04:32:50.740Z,0.31
2023-02-03T04:35:20.049Z,0.30
2023-02-03T04:37:50.207Z,0.23
2023-02-03T04:40:19.928Z,0.18
2023-02-03T04:42:48.341Z,0.09
2023-02-03T04:45:16.920Z,0.10
2023-02-03T04:47:45.498Z,0.05
2023-02-03T04:50:15.259Z,-0.22
2023-02-03T04:52:47.349Z,-0.31
2023-02-03T04:55:17.310Z,-0.26
2023-02-03T04:57:45.937Z,0.02
2023-02-03T05:00:17.635Z,0.05
2023-02-03T05:02:46.587Z,0.50
2023-02-03T05:05:15.103Z,0.43
2023-02-03T05:07:43.904Z,0.43
2023-02-03T05:10:12.957Z,0.61
2023-02-03T05:12:43.095Z,0.69
2023-02-03T05:15:11.906Z,0.69
2023-02-03T05:17:40.404Z,0.64
2023-02-03T05:20:10.651Z,0.54
2023-02-03T05:22:42.125Z,0.38
2023-02-03T05:25:11.163Z,0.45
2023-02-03T05:27:40.525Z,0.40
2023-02-03T05:30:14.559Z,0.27
2023-02-03T05:32:43.196Z,0.24
2023-02-03T05:35:11.651Z,0.20
2023-02-03T05:37:40.515Z,0.06
2023-02-03T05:40:28.160Z,0.20
2023-02-03T05:42:56.993Z,0.27
2023-02-03T05:45:26.697Z,0.36
2023-02-03T05:47:55.218Z,0.26
2023-02-03T05:50:25.561Z,0.27
2023-02-03T05:52:53.955Z,0.17
2023-02-03T05:55:22.194Z,0.14
2023-02-03T05:57:52.106Z,0.10
2023-02-03T06:00:22.143Z,0.33
2023-02-03T06:02:56.907Z,0.65
2023-02-03T06:05:26.654Z,0.58
2023-02-03T06:07:55.741Z,0.51
2023-02-03T06:10:24.178Z,0.43
2023-02-03T06:12:53.367Z,0.51
2023-02-03T06:15:23.476Z,0.44
2023-02-03T06:17:54.379Z,0.43
2023-02-03T06:20:23.200Z,0.43
2023-02-03T06:22:52.694Z,0.41
2023-02-03T06:25:21.142Z,0.40
2023-02-03T06:27:49.755Z,0.44
2023-02-03T06:30:19.751Z,0.36
2023-02-03T06:32:49.628Z,0.36
2023-02-03T06:35:19.884Z,0.44
2023-02-03T06:37:48.990Z,0.40
2023-02-03T06:40:17.791Z,0.38
2023-02-03T06:42:49.213Z,0.34
2023-02-03T06:45:18.315Z,0.34
2023-02-03T06:47:47.553Z,0.41
2023-02-03T06:50:18.068Z,0.45
2023-02-03T06:52:48.211Z,0.53
2023-02-03T06:55:18.131Z,0.66
2023-02-03T06:57:47.952Z,0.76
2023-02-03T07:00:19.144Z,0.85
2023-02-03T07:02:55.908Z,0.83
2023-02-03T07:05:25.444Z,0.86
2023-02-03T07:07:57.272Z,0.91
2023-02-03T07:10:25.685Z,0.97
2023-02-03T07:12:54.067Z,1.02
2023-02-03T07:15:22.532Z,1.06
2023-02-03T07:17:55.821Z,1.06
2023-02-03T07:20:26.784Z,1.10
2023-02-03T07:22:58.159Z,1.15
2023-02-03T07:25:27.753Z,1.23
2023-02-03T07:27:57.658Z,1.22
2023-02-03T07:30:29.252Z,1.34
2023-02-03T07:33:02.090Z,1.34
2023-02-03T07:35:30.737Z,1.40
2023-02-03T07:38:01.274Z,1.37
2023-02-03T07:40:30.025Z,1.41
2023-02-03T07:42:59.905Z,1.47
2023-02-03T07:45:28.987Z,1.44
2023-02-03T07:47:58.670Z,1.52
2023-02-03T07:50:29.026Z,1.58
2023-02-03T07:52:57.739Z,1.54
2023-02-03T07:55:29.796Z,1.62
2023-02-03T07:57:58.886Z,1.58
2023-02-03T08:00:28.043Z,1.71
2023-02-03T08:02:56.460Z,1.65
2023-02-03T08:05:24.787Z,1.68
2023-02-03T08:07:53.361Z,1.75
2023-02-03T08:10:24.769Z,1.74
2023-02-03T08:12:56.339Z,1.78
2023-02-03T08:15:24.562Z,1.82
2023-02-03T08:17:52.938Z,1.83
2023-02-03T08:20:21.513Z,1.83
2023-02-03T08:22:49.917Z,1.89
2023-02-03T08:25:19.015Z,1.89
2023-02-03T08:27:48.523Z,1.91
2023-02-03T08:30:18.559Z,1.92
2023-02-03T08:32:49.464Z,1.95
2023-02-03T08:35:18.003Z,1.98
2023-02-03T08:37:46.311Z,1.98
2023-02-03T08:40:14.921Z,2.01
2023-02-03T08:42:43.453Z,2.05
2023-02-03T08:45:12.180Z,2.03
2023-02-03T08:47:41.991Z,2.06
2023-02-03T08:50:11.985Z,2.09
2023-02-03T08:52:40.385Z,2.12
2023-02-03T08:55:09.453Z,2.16
2023-02-03T08:57:42.073Z,2.16
2023-02-03T09:00:12.355Z,2.19
2023-02-03T09:02:42.015Z,2.29
2023-02-03T09:05:11.174Z,2.08
2023-02-03T09:07:39.654Z,1.88
2023-02-03T09:10:09.359Z,1.78
2023-02-03T09:12:38.225Z,1.91
2023-02-03T09:15:08.440Z,1.97
2023-02-03T09:17:36.743Z,2.01
2023-02-03T09:20:07.614Z,1.94
2023-02-03T09:22:36.324Z,1.74
2023-02-03T09:25:05.795Z,1.75
2023-02-03T09:27:34.848Z,1.86
2023-02-03T09:30:03.702Z,1.77
2023-02-03T09:32:34.012Z,1.46
2023-02-03T09:35:02.926Z,1.30
2023-02-03T09:37:35.996Z,1.15
2023-02-03T09:40:05.635Z,1.02
2023-02-03T09:42:56.908Z,0.86
2023-02-03T09:45:28.280Z,0.83
2023-02-03T09:48:02.485Z,0.78
2023-02-03T09:50:35.310Z,0.71
2023-02-03T09:53:09.786Z,0.74
2023-02-03T09:55:45.343Z,0.69
2023-02-03T09:58:15.658Z,0.74
2023-02-03T10:00:49.338Z,0.65
2023-02-03T10:03:30.763Z,0.81
2023-02-03T10:06:15.280Z,0.82
2023-02-03T10:09:13.932Z,0.79
2023-02-03T10:11:54.774Z,0.83
2023-02-03T10:14:38.844Z,0.96
2023-02-03T10:17:20.164Z,1.00
2023-02-03T10:19:52.645Z,1.02
2023-02-03T10:22:25.871Z,1.04
2023-02-03T10:25:02.364Z,1.07
2023-02-03T10:27:34.461Z,1.20
2023-02-03T10:30:09.143Z,1.23
2023-02-03T10:32:37.960Z,1.10
2023-02-03T10:35:13.237Z,1.17
2023-02-03T10:37:46.038Z,1.10
2023-02-03T10:40:17.577Z,1.15
2023-02-03T10:43:07.055Z,1.07
2023-02-03T10:45:39.080Z,1.07
2023-02-03T10:48:10.303Z,1.13
2023-02-03T10:50:45.750Z,1.10
2023-02-03T10:53:26.033Z,1.07
2023-02-03T10:56:03.824Z,1.13
2023-02-03T10:58:34.388Z,1.19
2023-02-03T11:01:11.372Z,1.09
2023-02-03T11:03:42.207Z,1.17
2023-02-03T11:06:12.862Z,1.13
2023-02-03T11:08:45.344Z,1.19
2023-02-03T11:11:25.409Z,1.07
2023-02-03T11:14:12.107Z,1.10
2023-02-03T11:16:43.405Z,1.15
2023-02-03T11:19:19.236Z,1.02
2023-02-03T11:21:50.724Z,1.09
2023-02-03T11:24:21.873Z,1.00
2023-02-03T11:26:56.339Z,1.09
2023-02-03T11:29:28.591Z,0.96
2023-02-03T11:31:58.930Z,1.03
2023-02-03T11:34:30.781Z,0.99
2023-02-03T11:36:59.936Z,0.91
2023-02-03T11:39:30.304Z,0.95
2023-02-03T11:42:02.653Z,0.95
2023-02-03T11:44:33.713Z,0.92
2023-02-03T11:47:06.377Z,0.93
2023-02-03T11:50:02.254Z,0.86
2023-02-03T11:52:58.482Z,0.92
2023-02-03T11:55:40.069Z,0.89
2023-02-03T11:58:26.036Z,0.91
2023-02-03T12:01:01.977Z,0.91
2023-02-03T12:04:08.163Z,0.83
2023-02-03T12:07:01.686Z,0.88
2023-02-03T12:09:40.702Z,0.83
2023-02-03T12:12:28.272Z,0.82
2023-02-03T12:15:08.401Z,0.82
2023-02-03T12:18:05.627Z,0.81
2023-02-03T12:20:45.803Z,0.79
2023-02-03T12:23:32.016Z,0.69
2023-02-03T12:26:10.545Z,0.75
2023-02-03T12:28:49.831Z,0.78
2023-02-03T12:31:31.797Z,0.78
2023-02-03T12:34:14.141Z,0.78
2023-02-03T12:36:47.374Z,0.75
2023-02-03T12:39:23.953Z,0.75
2023-02-03T12:42:01.504Z,0.75
2023-02-03T12:44:35.090Z,0.68
2023-02-03T12:47:13.414Z,0.66
2023-02-03T12:49:46.631Z,0.72
2023-02-03T12:52:25.084Z,0.75
2023-02-03T12:55:01.364Z,0.72
2023-02-03T12:57:35.934Z,0.74
2023-02-03T13:00:27.118Z,0.71
2023-02-03T13:03:07.603Z,0.74
2023-02-03T13:05:44.938Z,0.69
2023-02-03T13:08:29.789Z,0.71
2023-02-03T13:11:08.436Z,0.72
2023-02-03T13:13:43.977Z,0.68
2023-02-03T13:16:15.079Z,0.57
2023-02-03T13:18:49.821Z,0.64
2023-02-03T13:21:19.942Z,0.58
2023-02-03T13:23:50.381Z,0.66
2023-02-03T13:26:57.199Z,0.72
2023-02-03T13:29:43.852Z,0.71
2023-02-03T13:32:26.723Z,0.69
2023-02-03T13:35:24.799Z,0.72
2023-02-03T13:38:32.922Z,0.76
2023-02-03T13:41:07.417Z,0.79
2023-02-03T13:43:40.063Z,0.76
2023-02-03T13:46:21.252Z,0.74
2023-02-03T13:48:57.780Z,0.81
2023-02-03T13:51:34.602Z,0.78
2023-02-03T13:54:09.896Z,0.79
2023-02-03T13:56:38.667Z,0.81
2023-02-03T13:59:28.936Z,0.72
2023-02-03T14:02:45.790Z,0.71
2023-02-03T14:05:42.963Z,0.75
2023-02-03T14:08:55.973Z,0.74
2023-02-03T14:11:44.270Z,0.72
2023-02-03T14:14:42.930Z,0.71
2023-02-03T14:17:44.765Z,0.79
2023-02-03T14:21:04.142Z,0.64
2023-02-03T14:23:42.998Z,0.64
2023-02-03T14:26:20.903Z,0.71
2023-02-03T14:28:53.855Z,0.69
2023-02-03T14:31:25.133Z,0.71
2023-02-03T14:34:15.540Z,0.76
2023-02-03T14:36:55.775Z,0.78
2023-02-03T14:39:55.416Z,0.79
2023-02-03T14:43:11.305Z,0.79
2023-02-03T14:46:00.063Z,0.83
2023-02-03T14:48:46.625Z,0.79
2023-02-03T14:51:27.464Z,0.85
2023-02-03T14:54:12.319Z,0.86
2023-02-03T14:57:08.105Z,0.97
2023-02-03T14:59:43.182Z,0.92
2023-02-03T15:02:32.269Z,1.13
2023-02-03T15:05:39.101Z,1.37
2023-02-03T15:08:50.609Z,1.54
2023-02-03T15:11:31.887Z,1.68
2023-02-03T15:14:19.866Z,1.75
2023-02-03T15:16:57.566Z,1.77
2023-02-03T15:19:33.399Z,1.81
2023-02-03T15:22:04.307Z,1.88
2023-02-03T15:24:41.656Z,1.94
2023-02-03T15:27:24.903Z,1.89
2023-02-03T15:30:01.356Z,2.01
2023-02-03T15:32:35.465Z,2.02
2023-02-03T15:35:17.614Z,1.99
2023-02-03T15:37:51.504Z,2.06
2023-02-03T15:40:30.364Z,2.01
2023-02-03T15:43:05.505Z,1.99
2023-02-03T15:45:37.945Z,2.06
2023-02-03T15:48:13.504Z,2.10
2023-02-03T15:50:54.194Z,2.15
2023-02-03T15:53:31.963Z,2.12
2023-02-03T15:56:18.687Z,2.13
2023-02-03T15:58:50.645Z,2.19
2023-02-03T16:01:26.509Z,2.20
2023-02-03T16:03:58.905Z,2.16
2023-02-03T16:06:39.320Z,2.23
2023-02-03T16:09:29.277Z,2.26
2023-02-03T16:12:09.493Z,2.30
2023-02-03T16:14:41.171Z,2.30
2023-02-03T16:17:27.316Z,2.30
2023-02-03T16:20:26.192Z,2.33
2023-02-03T16:23:08.948Z,2.27
2023-02-03T16:25:39.896Z,2.27
2023-02-03T16:28:36.900Z,2.25
2023-02-03T16:31:32.714Z,2.27
2023-02-03T16:34:21.615Z,2.26
2023-02-03T16:37:07.343Z,2.20
2023-02-03T16:39:56.189Z,2.18
2023-02-03T16:42:47.195Z,2.15
2023-02-03T16:45:36.631Z,2.10
2023-02-03T16:48:24.678Z,2.15
2023-02-03T16:50:58.214Z,2.19
2023-02-03T16:53:33.207Z,2.12
2023-02-03T16:56:05.873Z,2.15
2023-02-03T16:58:39.000Z,2.18
2023-02-03T17:01:11.714Z,2.19
2023-02-03T17:03:42.089Z,2.13
2023-02-03T17:06:13.067Z,2.19
2023-02-03T17:08:46.798Z,2.22
2023-02-03T17:11:20.782Z,2.23
2023-02-03T17:13:54.492Z,2.22
2023-02-03T17:16:24.993Z,2.26
2023-02-03T17:18:58.427Z,2.26
2023-02-03T17:21:30.072Z,2.32
2023-02-03T17:24:00.569Z,2.33
2023-02-03T17:26:35.285Z,2.33
2023-02-03T17:29:04.462Z,2.32
2023-02-03T17:31:33.646Z,2.36
2023-02-03T17:34:03.910Z,2.46
2023-02-03T17:36:41.352Z,2.48
2023-02-03T17:55:33.818Z,2.74
2023-02-03T17:58:03.994Z,2.85
2023-02-03T18:00:33.015Z,2.95
2023-02-03T18:03:02.019Z,2.94
2023-02-03T18:05:30.597Z,2.99
2023-02-03T18:08:03.347Z,3.04
2023-02-03T18:10:37.984Z,3.12
2023-02-03T18:13:08.349Z,3.12
2023-02-03T18:15:37.887Z,3.18
2023-02-03T18:18:06.760Z,3.18
2023-02-03T18:20:37.116Z,3.19
2023-02-03T18:23:05.620Z,3.22
2023-02-03T18:25:39.882Z,3.25
2023-02-03T18:28:10.396Z,3.30
2023-02-03T18:30:39.406Z,3.33
2023-02-03T18:33:08.187Z,3.39
2023-02-03T18:35:41.126Z,3.49
2023-02-03T18:38:13.123Z,3.44
2023-02-03T18:40:43.054Z,3.60
2023-02-03T18:43:14.732Z,3.84
2023-02-03T18:45:47.284Z,3.84
2023-02-03T18:48:16.342Z,4.11
2023-02-03T18:50:45.845Z,4.25
2023-02-03T18:53:14.504Z,4.05
2023-02-03T18:55:44.770Z,4.01
2023-02-03T18:58:17.983Z,4.06
2023-02-03T19:00:47.565Z,4.05
2023-02-03T19:03:16.945Z,4.35
2023-02-03T19:05:45.877Z,4.33
2023-02-03T19:08:14.848Z,4.53
2023-02-03T19:10:45.137Z,4.36
2023-02-03T19:13:15.395Z,4.45
2023-02-03T19:15:49.064Z,4.52
2023-02-03T19:18:20.654Z,4.56
2023-02-03T19:20:49.974Z,4.41
2023-02-03T19:23:20.416Z,4.42
2023-02-03T19:25:52.352Z,4.43
2023-02-03T19:28:30.399Z,4.31
2023-02-03T19:31:07.968Z,4.48
2023-02-03T19:33:37.741Z,4.48
2023-02-03T19:36:07.251Z,4.52
2023-02-03T19:38:36.483Z,4.39
2023-02-03T19:41:07.520Z,4.32
2023-02-03T19:43:40.046Z,4.33
2023-02-03T19:46:09.163Z,4.45
2023-02-03T19:48:38.742Z,4.29
2023-02-03T19:51:08.612Z,4.39
2023-02-03T19:53:38.488Z,4.26
2023-02-03T19:56:07.561Z,4.19
2023-02-03T19:58:38.742Z,4.09
2023-02-03T20:01:10.398Z,4.19
2023-02-03T20:03:39.776Z,4.06
2023-02-03T20:06:10.358Z,4.12
2023-02-03T20:08:39.121Z,3.91
2023-02-03T20:11:07.972Z,3.91
2023-02-03T20:13:38.868Z,3.88
2023-02-03T20:16:08.064Z,3.80
2023-02-03T20:18:38.136Z,3.84
2023-02-03T20:21:08.158Z,4.01
2023-02-03T20:23:37.859Z,3.85
2023-02-03T20:26:07.001Z,3.99
2023-02-03T20:28:36.904Z,4.29
2023-02-03T20:31:06.591Z,4.48
2023-02-03T20:33:37.766Z,4.23
2023-02-03T20:36:10.371Z,4.29
2023-02-03T20:38:40.976Z,4.11
2023-02-03T20:41:13.855Z,4.09
2023-02-03T20:43:44.125Z,4.26
2023-02-03T20:46:15.567Z,4.32
2023-02-03T20:48:46.840Z,4.29
2023-02-03T20:51:17.456Z,4.14
2023-02-03T20:53:46.223Z,4.09
2023-02-03T20:56:17.414Z,4.14
2023-02-03T20:58:50.157Z,4.06
2023-02-03T21:01:24.001Z,4.12
2023-02-03T21:04:11.950Z,4.16
2023-02-03T21:06:41.312Z,4.11
2023-02-03T21:09:15.020Z,4.05
2023-02-03T21:11:44.445Z,4.18
2023-02-03T21:14:23.862Z,4.11
2023-02-03T21:16:54.189Z,4.14
2023-02-03T21:19:29.937Z,4.06
2023-02-03T21:22:00.396Z,4.08
2023-02-03T21:24:30.684Z,4.16
2023-02-03T21:27:00.737Z,4.06
2023-02-03T21:29:34.432Z,4.05
2023-02-03T21:32:02.958Z,4.08
2023-02-03T21:34:33.653Z,3.90
2023-02-03T21:37:08.873Z,3.93
2023-02-03T21:39:37.456Z,3.90
2023-02-03T21:42:41.430Z,3.95
2023-02-03T21:45:40.245Z,3.97
2023-02-03T21:48:27.799Z,3.84
2023-02-03T21:50:57.210Z,4.08
2023-02-03T21:53:28.755Z,4.06
2023-02-03T21:55:57.685Z,4.22
2023-02-03T21:58:30.720Z,4.19
2023-02-03T22:01:01.823Z,4.38
2023-02-03T22:03:35.545Z,4.48
2023-02-03T22:06:17.993Z,4.26
2023-02-03T22:08:48.930Z,4.35
2023-02-03T22:11:19.554Z,4.31
2023-02-03T22:13:49.265Z,4.22
2023-02-03T22:16:20.389Z,4.31
2023-02-03T22:18:50.309Z,4.23
2023-02-03T22:21:19.618Z,4.42
2023-02-03T22:23:49.660Z,4.28
2023-02-03T22:26:22.151Z,4.23
2023-02-03T22:28:50.782Z,4.11
2023-02-03T22:31:21.838Z,4.16
2023-02-03T22:33:50.554Z,4.02
2023-02-03T22:36:18.937Z,3.99
2023-02-03T22:38:48.088Z,3.98
2023-02-03T22:41:17.507Z,3.94
2023-02-03T22:43:47.291Z,4.02
2023-02-03T22:46:16.329Z,3.90
2023-02-03T22:48:48.040Z,3.80
2023-02-03T22:51:17.003Z,4.08
2023-02-03T22:53:45.648Z,4.43
2023-02-03T22:56:14.045Z,4.16
2023-02-03T22:58:42.943Z,4.35
2023-02-03T23:01:11.943Z,4.04
2023-02-03T23:03:40.619Z,4.04
2023-02-03T23:06:11.789Z,4.01
2023-02-03T23:08:40.474Z,4.08
2023-02-03T23:11:09.025Z,4.12
2023-02-03T23:13:37.313Z,4.04
2023-02-03T23:16:09.123Z,4.08
2023-02-03T23:18:38.716Z,3.84
2023-02-03T23:21:09.944Z,3.97
2023-02-03T23:23:38.387Z,3.84
2023-02-03T23:26:07.300Z,3.83
2023-02-03T23:28:36.051Z,4.01
2023-02-03T23:31:04.877Z,3.93
2023-02-03T23:33:33.220Z,3.87
2023-02-03T23:36:00.601Z,3.77
2023-02-03T23:38:33.386Z,3.78
2023-02-03T23:41:02.203Z,3.95
2023-02-03T23:43:31.887Z,4.01
2023-02-03T23:46:00.188Z,4.09
2023-02-03T23:48:29.230Z,4.06
2023-02-03T23:50:59.089Z,4.09
2023-02-03T23:53:27.438Z,4.28
2023-02-03T23:56:00.238Z,4.48
2023-02-03T23:58:29.576Z,4.26
